createdAt,value
2018-05-31T00:00:10.629Z,26.85
2018-05-31T00:01:10.626Z,26.89
2018-05-31T00:02:10.621Z,26.82
2018-05-31T00:03:10.617Z,26.86
2018-05-31T00:04:10.616Z,26.89
2018-05-31T00:05:10.617Z,26.92
2018-05-31T00:06:10.606Z,26.96
2018-05-31T00:07:10.603Z,26.91
2018-05-31T00:08:10.600Z,26.92
2018-05-31T00:09:10.597Z,26.93
2018-05-31T00:10:10.594Z,26.93
2018-05-31T00:11:10.590Z,26.92
2018-05-31T00:12:10.586Z,26.93
2018-05-31T00:13:10.583Z,26.86
2018-05-31T00:14:10.582Z,26.82
2018-05-31T00:15:10.576Z,26.92
2018-05-31T00:16:10.578Z,26.91
2018-05-31T00:17:10.569Z,26.92
2018-05-31T00:18:10.565Z,26.93
2018-05-31T00:19:10.562Z,26.91
2018-05-31T00:20:10.557Z,26.88
2018-05-31T00:21:10.556Z,26.97
2018-05-31T00:22:10.551Z,26.93
2018-05-31T00:23:10.548Z,26.85
2018-05-31T00:24:10.544Z,26.89
2018-05-31T00:25:10.565Z,26.86
2018-05-31T00:26:10.536Z,26.83
2018-05-31T00:27:10.535Z,26.83
2018-05-31T00:28:10.532Z,26.86
2018-05-31T00:29:10.529Z,26.82
2018-05-31T00:30:10.523Z,26.85
2018-05-31T00:31:10.519Z,26.96
2018-05-31T00:32:10.517Z,26.83
2018-05-31T00:33:10.513Z,26.81
2018-05-31T00:34:10.519Z,26.92
2018-05-31T00:35:10.512Z,26.83
2018-05-31T00:36:10.524Z,26.91
2018-05-31T00:37:10.498Z,26.86
2018-05-31T00:38:10.494Z,26.79
2018-05-31T00:39:10.496Z,26.83
2018-05-31T00:40:10.489Z,26.86
2018-05-31T00:41:10.485Z,26.88
2018-05-31T00:42:10.481Z,26.91
2018-05-31T00:43:10.478Z,26.86
2018-05-31T00:44:10.474Z,26.93
2018-05-31T00:45:10.487Z,26.85
2018-05-31T00:46:10.467Z,26.85
2018-05-31T00:47:10.464Z,26.86
2018-05-31T00:48:10.461Z,26.76
2018-05-31T00:49:10.455Z,26.82
2018-05-31T00:50:10.453Z,26.85
2018-05-31T00:51:10.449Z,26.83
2018-05-31T00:52:10.448Z,26.83
2018-05-31T00:53:10.443Z,26.83
2018-05-31T00:54:10.438Z,26.85
2018-05-31T00:55:10.435Z,26.79
2018-05-31T00:56:10.431Z,26.86
2018-05-31T00:57:10.432Z,26.89
2018-05-31T00:58:10.422Z,26.86
2018-05-31T00:59:10.420Z,26.81
2018-05-31T01:00:10.419Z,26.82
2018-05-31T01:01:10.414Z,26.82
2018-05-31T01:02:10.411Z,26.83
2018-05-31T01:03:10.408Z,26.81
2018-05-31T01:04:10.425Z,26.83
2018-05-31T01:05:10.405Z,26.85
2018-05-31T01:06:10.402Z,26.79
2018-05-31T01:07:10.403Z,26.81
2018-05-31T01:08:10.388Z,26.91
2018-05-31T01:09:10.387Z,26.83
2018-05-31T01:10:10.379Z,26.82
2018-05-31T01:11:10.378Z,26.71
2018-05-31T01:12:10.516Z,26.83
2018-05-31T01:13:10.394Z,26.74
2018-05-31T01:14:10.367Z,26.83
2018-05-31T01:15:10.364Z,26.78
2018-05-31T01:16:10.360Z,26.83
2018-05-31T01:17:10.354Z,26.86
2018-05-31T01:18:10.377Z,26.82
2018-05-31T01:19:10.350Z,26.78
2018-05-31T01:20:10.345Z,26.73
2018-05-31T01:21:10.343Z,26.81
2018-05-31T01:22:10.339Z,26.81
2018-05-31T01:23:10.335Z,26.81
2018-05-31T01:24:10.334Z,26.79
2018-05-31T01:25:10.327Z,26.88
2018-05-31T01:26:10.324Z,26.76
2018-05-31T01:27:10.320Z,26.83
2018-05-31T01:28:10.318Z,26.81
2018-05-31T01:29:10.314Z,26.79
2018-05-31T01:30:10.309Z,26.81
2018-05-31T01:31:10.307Z,26.68
2018-05-31T01:32:10.304Z,26.76
2018-05-31T01:33:10.301Z,26.76
2018-05-31T01:34:10.294Z,26.79
2018-05-31T01:35:10.295Z,26.63
2018-05-31T01:36:10.343Z,26.63
2018-05-31T01:37:10.331Z,26.49
2018-05-31T01:38:10.279Z,26.45
2018-05-31T01:39:10.278Z,26.44
2018-05-31T01:40:10.278Z,26.33
2018-05-31T01:41:10.271Z,26.33
2018-05-31T01:42:10.265Z,26.30
2018-05-31T01:43:10.269Z,26.29
2018-05-31T01:44:10.263Z,26.36
2018-05-31T01:45:10.257Z,26.30
2018-05-31T01:46:10.253Z,26.30
2018-05-31T01:47:10.249Z,26.27
2018-05-31T01:48:10.244Z,26.30
2018-05-31T01:49:10.241Z,26.30
2018-05-31T01:50:10.296Z,26.31
2018-05-31T01:51:10.235Z,26.26
2018-05-31T01:52:10.233Z,26.27
2018-05-31T01:53:10.226Z,26.11
2018-05-31T01:54:10.226Z,26.23
2018-05-31T01:55:10.221Z,26.18
2018-05-31T01:56:10.217Z,26.10
2018-05-31T01:57:10.211Z,26.04
2018-05-31T01:58:10.233Z,25.99
2018-05-31T01:59:10.206Z,25.95
2018-05-31T02:00:10.205Z,26.11
2018-05-31T02:01:10.196Z,25.99
2018-05-31T02:02:10.195Z,25.99
2018-05-31T02:03:10.189Z,26.04
2018-05-31T02:04:10.184Z,26.04
2018-05-31T02:05:10.183Z,26.10
2018-05-31T02:06:10.905Z,26.06
2018-05-31T02:07:10.173Z,26.04
2018-05-31T02:08:10.172Z,25.99
2018-05-31T02:09:10.167Z,25.98
2018-05-31T02:10:10.162Z,25.98
2018-05-31T02:11:10.159Z,26.01
2018-05-31T02:12:10.154Z,26.04
2018-05-31T02:13:10.151Z,26.01
2018-05-31T02:14:10.146Z,26.10
2018-05-31T02:15:10.173Z,25.98
2018-05-31T02:16:10.140Z,26.13
2018-05-31T02:17:10.320Z,26.08
2018-05-31T02:18:10.131Z,26.16
2018-05-31T02:19:10.128Z,26.16
2018-05-31T02:20:10.126Z,26.10
2018-05-31T02:21:10.126Z,26.22
2018-05-31T02:22:10.116Z,26.26
2018-05-31T02:23:10.112Z,26.27
2018-05-31T02:24:10.109Z,26.29
2018-05-31T02:25:10.108Z,26.26
2018-05-31T02:26:10.100Z,26.24
2018-05-31T02:27:10.103Z,26.34
2018-05-31T02:28:10.093Z,26.30
2018-05-31T02:29:10.089Z,26.34
2018-05-31T02:30:10.084Z,26.36
2018-05-31T02:31:10.080Z,26.37
2018-05-31T02:32:10.080Z,26.34
2018-05-31T02:33:10.073Z,26.31
2018-05-31T02:34:10.071Z,26.29
2018-05-31T02:35:10.065Z,26.34
2018-05-31T02:36:10.063Z,26.36
2018-05-31T02:37:10.060Z,26.37
2018-05-31T02:38:10.073Z,26.33
2018-05-31T02:39:10.051Z,26.34
2018-05-31T02:40:10.048Z,26.33
2018-05-31T02:41:10.050Z,26.44
2018-05-31T02:42:10.041Z,26.37
2018-05-31T02:43:10.038Z,26.37
2018-05-31T02:44:10.033Z,26.34
2018-05-31T02:45:10.028Z,26.45
2018-05-31T02:46:10.024Z,26.44
2018-05-31T02:47:10.021Z,26.41
2018-05-31T02:48:10.016Z,26.44
2018-05-31T02:49:10.014Z,26.33
2018-05-31T02:50:10.010Z,26.34
2018-05-31T02:51:10.007Z,26.44
2018-05-31T02:52:10.004Z,26.41
2018-05-31T02:53:10.000Z,26.36
2018-05-31T02:54:09.995Z,26.41
2018-05-31T02:55:09.991Z,26.34
2018-05-31T02:56:09.988Z,26.34
2018-05-31T02:57:09.984Z,26.30
2018-05-31T02:58:09.980Z,26.30
2018-05-31T02:59:09.976Z,26.03
2018-05-31T03:00:09.972Z,26.10
2018-05-31T03:01:09.968Z,26.04
2018-05-31T03:02:09.967Z,25.98
2018-05-31T03:03:09.963Z,25.92
2018-05-31T03:04:09.957Z,25.99
2018-05-31T03:05:09.954Z,25.98
2018-05-31T03:06:09.948Z,26.01
2018-05-31T03:07:09.945Z,26.06
2018-05-31T03:08:09.944Z,26.11
2018-05-31T03:09:09.937Z,26.13
2018-05-31T03:10:09.932Z,25.98
2018-05-31T03:11:09.932Z,26.01
2018-05-31T03:12:09.927Z,25.98
2018-05-31T03:13:09.922Z,26.16
2018-05-31T03:14:09.919Z,26.16
2018-05-31T03:15:09.914Z,26.13
2018-05-31T03:16:09.911Z,26.08
2018-05-31T03:17:09.907Z,26.11
2018-05-31T03:18:09.904Z,26.16
2018-05-31T03:19:09.900Z,26.16
2018-05-31T03:20:09.894Z,26.18
2018-05-31T03:21:09.893Z,26.15
2018-05-31T03:22:09.889Z,26.24
2018-05-31T03:23:09.883Z,26.10
2018-05-31T03:24:09.879Z,26.08
2018-05-31T03:25:09.877Z,26.22
2018-05-31T03:26:09.871Z,26.10
2018-05-31T03:27:09.868Z,26.18
2018-05-31T03:28:09.865Z,26.15
2018-05-31T03:29:09.862Z,26.11
2018-05-31T03:30:09.857Z,26.13
2018-05-31T03:31:09.855Z,26.16
2018-05-31T03:32:09.851Z,26.26
2018-05-31T03:33:09.849Z,26.26
2018-05-31T03:34:09.842Z,26.31
2018-05-31T03:35:09.837Z,26.26
2018-05-31T03:36:09.836Z,26.24
2018-05-31T03:37:09.830Z,26.23
2018-05-31T03:38:09.825Z,26.10
2018-05-31T03:39:09.821Z,26.10
2018-05-31T03:40:09.822Z,26.15
2018-05-31T03:41:09.820Z,26.22
2018-05-31T03:42:09.810Z,26.19
2018-05-31T03:43:09.806Z,26.10
2018-05-31T03:44:09.803Z,26.16
2018-05-31T03:45:09.800Z,26.07
2018-05-31T03:46:09.795Z,26.11
2018-05-31T03:47:09.792Z,26.07
2018-05-31T03:48:09.787Z,26.16
2018-05-31T03:49:09.784Z,26.18
2018-05-31T03:50:09.780Z,26.15
2018-05-31T03:51:09.777Z,26.08
2018-05-31T03:52:09.773Z,26.16
2018-05-31T03:53:09.769Z,26.15
2018-05-31T03:54:09.765Z,26.10
2018-05-31T03:55:09.758Z,26.16
2018-05-31T03:56:09.767Z,26.22
2018-05-31T03:57:09.754Z,26.15
2018-05-31T03:58:09.752Z,26.23
2018-05-31T03:59:09.745Z,26.23
2018-05-31T04:00:09.740Z,26.33
2018-05-31T04:01:09.740Z,26.22
2018-05-31T04:02:09.738Z,26.24
2018-05-31T04:03:09.729Z,26.26
2018-05-31T04:04:09.725Z,26.31
2018-05-31T04:05:09.723Z,26.36
2018-05-31T04:06:09.716Z,26.29
2018-05-31T04:07:09.717Z,26.30
2018-05-31T04:08:09.714Z,26.33
2018-05-31T04:09:09.708Z,26.30
2018-05-31T04:10:09.702Z,26.30
2018-05-31T04:11:09.701Z,26.30
2018-05-31T04:12:09.700Z,26.27
2018-05-31T04:13:09.692Z,26.34
2018-05-31T04:14:09.688Z,26.30
2018-05-31T04:15:09.683Z,26.29
2018-05-31T04:16:09.681Z,26.33
2018-05-31T04:17:09.675Z,26.27
2018-05-31T04:18:09.672Z,26.27
2018-05-31T04:19:09.670Z,26.30
2018-05-31T04:20:09.665Z,26.33
2018-05-31T04:21:09.660Z,26.30
2018-05-31T04:22:09.659Z,26.31
2018-05-31T04:23:09.653Z,26.30
2018-05-31T04:24:09.648Z,26.31
2018-05-31T04:25:09.645Z,26.24
2018-05-31T04:26:09.641Z,26.33
2018-05-31T04:27:09.639Z,26.34
2018-05-31T04:28:09.784Z,26.31
2018-05-31T04:29:09.628Z,26.37
2018-05-31T04:30:09.626Z,26.27
2018-05-31T04:31:09.621Z,26.34
2018-05-31T04:32:09.618Z,26.26
2018-05-31T04:33:09.616Z,26.31
2018-05-31T04:34:09.611Z,26.31
2018-05-31T04:35:09.607Z,26.36
2018-05-31T04:36:09.604Z,26.36
2018-05-31T04:37:09.601Z,26.39
2018-05-31T04:38:09.596Z,26.33
2018-05-31T04:39:09.591Z,26.37
2018-05-31T04:40:09.588Z,26.36
2018-05-31T04:41:09.586Z,26.30
2018-05-31T04:42:09.581Z,26.31
2018-05-31T04:43:09.581Z,26.31
2018-05-31T04:44:09.574Z,26.30
2018-05-31T04:45:09.570Z,26.31
2018-05-31T04:46:09.564Z,26.31
2018-05-31T04:47:09.562Z,26.26
2018-05-31T04:48:09.557Z,26.29
2018-05-31T04:49:09.554Z,26.29
2018-05-31T04:50:09.551Z,26.26
2018-05-31T04:51:09.546Z,26.29
2018-05-31T04:52:09.544Z,26.33
2018-05-31T04:53:09.538Z,26.24
2018-05-31T04:54:09.534Z,26.27
2018-05-31T04:55:09.532Z,26.27
2018-05-31T04:56:09.528Z,26.34
2018-05-31T04:57:09.533Z,26.26
2018-05-31T04:58:09.518Z,26.29
2018-05-31T04:59:09.516Z,26.23
2018-05-31T05:00:09.516Z,26.13
2018-05-31T05:01:09.508Z,26.16
2018-05-31T05:02:09.503Z,26.15
2018-05-31T05:03:09.499Z,26.16
2018-05-31T05:04:09.497Z,26.11
2018-05-31T05:05:09.493Z,26.18
2018-05-31T05:06:09.489Z,26.16
2018-05-31T05:07:09.492Z,26.16
2018-05-31T05:08:09.481Z,26.10
2018-05-31T05:09:09.483Z,26.19
2018-05-31T05:10:09.472Z,26.10
2018-05-31T05:11:09.469Z,26.11
2018-05-31T05:12:09.467Z,26.22
2018-05-31T05:13:09.463Z,26.29
2018-05-31T05:14:09.457Z,26.27
2018-05-31T05:15:09.453Z,26.26
2018-05-31T05:16:09.449Z,26.29
2018-05-31T05:17:09.446Z,26.26
2018-05-31T05:18:09.442Z,26.23
2018-05-31T05:19:09.440Z,26.26
2018-05-31T05:20:09.433Z,26.36
2018-05-31T05:21:09.431Z,26.31
2018-05-31T05:22:09.425Z,26.30
2018-05-31T05:23:09.426Z,26.31
2018-05-31T05:24:09.420Z,26.31
2018-05-31T05:25:09.417Z,26.30
2018-05-31T05:26:09.410Z,26.30
2018-05-31T05:27:09.407Z,26.31
2018-05-31T05:28:09.404Z,26.33
2018-05-31T05:29:09.402Z,26.31
2018-05-31T05:30:09.396Z,26.31
2018-05-31T05:31:09.392Z,26.30
2018-05-31T05:32:09.389Z,26.27
2018-05-31T05:33:09.474Z,26.34
2018-05-31T05:34:09.382Z,26.37
2018-05-31T05:35:09.376Z,26.34
2018-05-31T05:36:09.375Z,26.37
2018-05-31T05:37:09.374Z,26.34
2018-05-31T05:38:09.364Z,26.41
2018-05-31T05:39:09.360Z,26.45
2018-05-31T05:40:09.356Z,26.51
2018-05-31T05:41:09.352Z,26.53
2018-05-31T05:42:09.346Z,26.53
2018-05-31T05:43:09.344Z,26.56
2018-05-31T05:44:09.340Z,26.66
2018-05-31T05:45:09.332Z,26.60
2018-05-31T05:46:09.329Z,26.68
2018-05-31T05:47:09.326Z,26.70
2018-05-31T05:48:09.321Z,26.73
2018-05-31T05:49:09.312Z,26.73
2018-05-31T05:50:09.352Z,26.76
2018-05-31T05:51:09.308Z,26.83
2018-05-31T05:52:09.301Z,26.82
2018-05-31T05:53:09.299Z,26.85
2018-05-31T05:54:09.292Z,26.85
2018-05-31T05:55:09.288Z,26.85
2018-05-31T05:56:09.282Z,26.85
2018-05-31T05:57:09.278Z,26.82
2018-05-31T05:58:09.275Z,26.78
2018-05-31T05:59:09.266Z,26.85
2018-05-31T06:00:09.263Z,26.86
2018-05-31T06:01:09.260Z,26.92
2018-05-31T06:02:09.253Z,26.98
2018-05-31T06:03:09.248Z,26.98
2018-05-31T06:04:09.252Z,27.00
2018-05-31T06:05:09.240Z,26.98
2018-05-31T06:06:09.233Z,27.01
2018-05-31T06:07:09.230Z,26.98
2018-05-31T06:08:09.225Z,27.04
2018-05-31T06:09:09.221Z,27.03
2018-05-31T06:10:09.257Z,27.03
2018-05-31T06:11:09.209Z,27.05
2018-05-31T06:12:09.204Z,27.11
2018-05-31T06:13:09.199Z,27.07
2018-05-31T06:14:09.202Z,27.05
2018-05-31T06:15:09.189Z,27.16
2018-05-31T06:16:09.187Z,27.13
2018-05-31T06:17:09.192Z,27.19
2018-05-31T06:18:09.174Z,27.19
2018-05-31T06:19:09.179Z,27.18
2018-05-31T06:20:09.171Z,27.20
2018-05-31T06:21:09.162Z,27.22
2018-05-31T06:22:09.155Z,27.08
2018-05-31T06:23:09.150Z,27.19
2018-05-31T06:24:09.147Z,27.25
2018-05-31T06:25:09.144Z,27.25
2018-05-31T06:26:09.142Z,27.26
2018-05-31T06:27:09.131Z,27.22
2018-05-31T06:28:09.125Z,27.15
2018-05-31T06:29:09.121Z,27.16
2018-05-31T06:30:09.116Z,27.25
2018-05-31T06:31:09.116Z,27.19
2018-05-31T06:32:09.105Z,27.28
2018-05-31T06:33:09.103Z,27.26
2018-05-31T06:34:09.096Z,27.22
2018-05-31T06:35:09.095Z,27.29
2018-05-31T06:36:09.087Z,27.11
2018-05-31T06:37:09.129Z,27.33
2018-05-31T06:38:09.077Z,27.22
2018-05-31T06:39:09.071Z,27.25
2018-05-31T06:40:09.066Z,27.20
2018-05-31T06:41:09.096Z,27.26
2018-05-31T06:42:09.064Z,27.26
2018-05-31T06:43:09.056Z,27.23
2018-05-31T06:44:09.048Z,27.20
2018-05-31T06:45:09.042Z,27.23
2018-05-31T06:46:09.037Z,27.25
2018-05-31T06:47:09.057Z,27.23
2018-05-31T06:48:09.031Z,27.38
2018-05-31T06:49:09.030Z,27.30
2018-05-31T06:50:09.017Z,27.33
2018-05-31T06:51:09.016Z,27.30
2018-05-31T06:52:09.011Z,27.41
2018-05-31T06:53:09.004Z,27.38
2018-05-31T06:54:08.998Z,27.37
2018-05-31T06:55:08.993Z,27.37
2018-05-31T06:56:08.989Z,27.45
2018-05-31T06:57:08.983Z,27.38
2018-05-31T06:58:08.978Z,27.47
2018-05-31T06:59:08.974Z,27.43
2018-05-31T07:00:08.969Z,27.43
2018-05-31T07:01:08.964Z,27.57
2018-05-31T07:02:08.960Z,27.48
2018-05-31T07:03:08.955Z,27.57
2018-05-31T07:04:08.949Z,27.52
2018-05-31T07:05:08.945Z,27.55
2018-05-31T07:06:08.939Z,27.58
2018-05-31T07:07:08.936Z,27.52
2018-05-31T07:08:08.932Z,27.57
2018-05-31T07:09:08.925Z,27.64
2018-05-31T07:10:08.920Z,27.66
2018-05-31T07:11:08.918Z,27.68
2018-05-31T07:12:08.913Z,27.68
2018-05-31T07:13:08.906Z,27.67
2018-05-31T07:14:08.901Z,27.66
2018-05-31T07:15:08.897Z,27.64
2018-05-31T07:16:08.988Z,27.71
2018-05-31T07:17:08.887Z,27.78
2018-05-31T07:18:08.882Z,27.79
2018-05-31T07:19:08.877Z,27.73
2018-05-31T07:20:08.873Z,27.79
2018-05-31T07:21:08.870Z,27.90
2018-05-31T07:22:08.863Z,27.79
2018-05-31T07:23:08.859Z,27.81
2018-05-31T07:24:08.856Z,27.79
2018-05-31T07:25:08.852Z,27.82
2018-05-31T07:26:08.845Z,27.81
2018-05-31T07:27:08.843Z,27.79
2018-05-31T07:28:08.836Z,27.86
2018-05-31T07:29:08.831Z,27.91
2018-05-31T07:30:08.826Z,27.94
2018-05-31T07:31:08.822Z,28.01
2018-05-31T07:32:08.818Z,28.03
2018-05-31T07:33:08.813Z,27.86
2018-05-31T07:34:08.806Z,27.95
2018-05-31T07:35:08.802Z,27.94
2018-05-31T07:36:08.824Z,28.09
2018-05-31T07:37:08.794Z,28.01
2018-05-31T07:38:08.787Z,28.04
2018-05-31T07:39:08.785Z,27.95
2018-05-31T07:40:08.780Z,28.00
2018-05-31T07:41:08.791Z,28.01
2018-05-31T07:42:08.770Z,27.94
2018-05-31T07:43:08.770Z,28.04
2018-05-31T07:44:08.762Z,28.16
2018-05-31T07:45:08.761Z,28.15
2018-05-31T07:46:08.753Z,28.08
2018-05-31T07:47:08.747Z,28.15
2018-05-31T07:48:08.743Z,28.13
2018-05-31T07:49:08.740Z,28.09
2018-05-31T07:50:09.638Z,28.18
2018-05-31T07:51:08.731Z,28.19
2018-05-31T07:52:08.724Z,28.15
2018-05-31T07:53:08.720Z,28.30
2018-05-31T07:54:08.715Z,28.33
2018-05-31T07:55:08.710Z,28.35
2018-05-31T07:56:08.709Z,28.38
2018-05-31T07:57:08.706Z,28.38
2018-05-31T07:58:08.728Z,28.43
2018-05-31T07:59:08.694Z,28.52
2018-05-31T08:00:08.692Z,28.49
2018-05-31T08:01:08.687Z,28.47
2018-05-31T08:02:08.679Z,28.53
2018-05-31T08:03:08.676Z,28.50
2018-05-31T08:04:08.673Z,28.55
2018-05-31T08:05:08.670Z,28.50
2018-05-31T08:06:08.665Z,28.49
2018-05-31T08:07:08.659Z,28.57
2018-05-31T08:08:08.662Z,28.55
2018-05-31T08:09:08.650Z,28.57
2018-05-31T08:10:08.645Z,28.57
2018-05-31T08:11:08.641Z,28.65
2018-05-31T08:12:08.637Z,28.64
2018-05-31T08:13:08.636Z,28.59
2018-05-31T08:14:08.622Z,28.57
2018-05-31T08:15:08.624Z,28.65
2018-05-31T08:16:08.620Z,28.67
2018-05-31T08:17:08.615Z,28.64
2018-05-31T08:18:08.610Z,28.70
2018-05-31T08:19:08.605Z,28.72
2018-05-31T08:20:08.787Z,28.68
2018-05-31T08:21:08.599Z,28.78
2018-05-31T08:22:08.594Z,28.78
2018-05-31T08:23:08.605Z,28.70
2018-05-31T08:24:08.614Z,28.80
2018-05-31T08:25:08.580Z,28.84
2018-05-31T08:26:08.575Z,28.84
2018-05-31T08:27:08.573Z,28.89
2018-05-31T08:28:08.573Z,28.86
2018-05-31T08:29:08.565Z,28.87
2018-05-31T08:30:08.560Z,28.94
2018-05-31T08:31:08.563Z,28.94
2018-05-31T08:32:08.552Z,29.05
2018-05-31T08:33:08.547Z,28.97
2018-05-31T08:34:08.546Z,28.94
2018-05-31T08:35:08.543Z,29.09
2018-05-31T08:36:08.536Z,29.02
2018-05-31T08:37:08.532Z,29.10
2018-05-31T08:38:08.527Z,29.13
2018-05-31T08:39:08.521Z,29.18
2018-05-31T08:40:08.518Z,29.13
2018-05-31T08:41:08.517Z,29.13
2018-05-31T08:42:08.519Z,29.16
2018-05-31T08:43:08.505Z,29.16
2018-05-31T08:44:08.549Z,29.13
2018-05-31T08:45:08.504Z,29.21
2018-05-31T08:46:08.494Z,29.31
2018-05-31T08:47:08.490Z,29.20
2018-05-31T08:48:08.486Z,29.22
2018-05-31T08:49:08.482Z,29.32
2018-05-31T08:50:08.481Z,29.22
2018-05-31T08:51:08.506Z,29.27
2018-05-31T08:52:08.490Z,29.31
2018-05-31T08:53:08.467Z,29.30
2018-05-31T08:54:08.461Z,29.34
2018-05-31T08:55:08.458Z,29.25
2018-05-31T08:56:08.455Z,29.22
2018-05-31T08:57:08.449Z,29.27
2018-05-31T08:58:08.447Z,29.30
2018-05-31T08:59:08.442Z,29.22
2018-05-31T09:00:08.438Z,29.28
2018-05-31T09:01:08.432Z,29.34
2018-05-31T09:02:08.429Z,29.32
2018-05-31T09:03:08.428Z,29.34
2018-05-31T09:04:08.442Z,29.28
2018-05-31T09:05:08.425Z,29.28
2018-05-31T09:06:09.317Z,29.27
2018-05-31T09:07:08.412Z,29.39
2018-05-31T09:08:08.408Z,29.39
2018-05-31T09:09:08.405Z,29.32
2018-05-31T09:10:08.400Z,29.32
2018-05-31T09:11:08.398Z,29.42
2018-05-31T09:12:08.411Z,29.35
2018-05-31T09:13:08.390Z,29.43
2018-05-31T09:14:08.385Z,29.39
2018-05-31T09:15:08.401Z,29.44
2018-05-31T09:16:08.377Z,29.43
2018-05-31T09:17:08.374Z,29.46
2018-05-31T09:18:08.372Z,29.46
2018-05-31T09:19:08.366Z,29.46
2018-05-31T09:20:08.362Z,29.40
2018-05-31T09:21:08.359Z,29.44
2018-05-31T09:22:08.352Z,29.47
2018-05-31T09:23:08.355Z,29.39
2018-05-31T09:24:08.349Z,29.46
2018-05-31T09:25:08.836Z,29.52
2018-05-31T09:26:08.339Z,29.42
2018-05-31T09:27:08.336Z,29.46
2018-05-31T09:28:08.334Z,29.49
2018-05-31T09:29:08.328Z,29.53
2018-05-31T09:30:08.325Z,29.53
2018-05-31T09:31:08.320Z,29.55
2018-05-31T09:32:08.317Z,29.53
2018-05-31T09:33:08.312Z,29.52
2018-05-31T09:34:08.307Z,29.53
2018-05-31T09:35:08.652Z,29.53
2018-05-31T09:36:08.301Z,29.58
2018-05-31T09:37:08.297Z,29.55
2018-05-31T09:38:08.320Z,29.58
2018-05-31T09:39:08.293Z,29.59
2018-05-31T09:40:08.361Z,29.59
2018-05-31T09:41:08.311Z,29.59
2018-05-31T09:42:08.279Z,29.53
2018-05-31T09:43:08.274Z,29.52
2018-05-31T09:44:08.271Z,29.50
2018-05-31T09:45:08.590Z,29.49
2018-05-31T09:46:08.265Z,29.50
2018-05-31T09:47:08.261Z,29.44
2018-05-31T09:48:08.258Z,29.52
2018-05-31T09:49:08.252Z,29.44
2018-05-31T09:50:08.249Z,29.46
2018-05-31T09:51:08.517Z,29.42
2018-05-31T09:52:08.243Z,29.53
2018-05-31T09:53:08.239Z,29.42
2018-05-31T09:54:08.233Z,29.42
2018-05-31T09:55:08.229Z,29.43
2018-05-31T09:56:08.226Z,29.39
2018-05-31T09:57:08.218Z,29.39
2018-05-31T09:58:08.241Z,29.40
2018-05-31T09:59:08.273Z,29.42
2018-05-31T10:00:08.212Z,29.37
2018-05-31T10:01:08.208Z,29.40
2018-05-31T10:02:08.208Z,29.43
2018-05-31T10:03:08.205Z,29.39
2018-05-31T10:04:08.200Z,29.42
2018-05-31T10:05:08.195Z,29.39
2018-05-31T10:06:08.185Z,29.43
2018-05-31T10:07:08.186Z,29.42
2018-05-31T10:08:08.180Z,29.39
2018-05-31T10:09:08.181Z,29.40
2018-05-31T10:10:08.174Z,29.46
2018-05-31T10:11:08.171Z,29.44
2018-05-31T10:12:08.167Z,29.39
2018-05-31T10:13:08.164Z,29.34
2018-05-31T10:14:08.160Z,29.43
2018-05-31T10:15:08.161Z,29.49
2018-05-31T10:16:08.147Z,29.43
2018-05-31T10:17:08.179Z,29.57
2018-05-31T10:18:08.671Z,29.62
2018-05-31T10:19:08.150Z,29.67
2018-05-31T10:20:08.764Z,29.80
2018-05-31T10:21:08.685Z,29.73
2018-05-31T10:22:08.132Z,29.81
2018-05-31T10:23:08.128Z,29.89
2018-05-31T10:24:08.188Z,29.94
2018-05-31T10:25:08.123Z,29.89
2018-05-31T10:26:08.122Z,29.96
2018-05-31T10:27:08.111Z,29.99
2018-05-31T10:28:08.260Z,30.02
2018-05-31T10:29:08.107Z,30.02
2018-05-31T10:30:08.807Z,30.06
2018-05-31T10:31:08.099Z,30.01
2018-05-31T10:32:08.172Z,30.10
2018-05-31T10:33:08.091Z,30.16
2018-05-31T10:34:08.087Z,30.14
2018-05-31T10:35:08.084Z,30.24
2018-05-31T10:36:08.087Z,30.20
2018-05-31T10:37:08.080Z,30.27
2018-05-31T10:38:08.362Z,30.24
2018-05-31T10:39:08.696Z,30.27
2018-05-31T10:40:08.067Z,30.32
2018-05-31T10:41:08.063Z,30.35
2018-05-31T10:42:08.061Z,30.32
2018-05-31T10:43:08.057Z,30.39
2018-05-31T10:44:08.068Z,30.32
2018-05-31T10:45:08.051Z,30.31
2018-05-31T10:46:08.046Z,30.32
2018-05-31T10:47:08.042Z,30.31
2018-05-31T10:48:08.063Z,30.26
2018-05-31T10:49:08.042Z,30.24
2018-05-31T10:50:08.033Z,30.24
2018-05-31T10:51:08.030Z,30.18
2018-05-31T10:52:08.028Z,30.14
2018-05-31T10:53:08.032Z,30.08
2018-05-31T10:54:08.014Z,30.08
2018-05-31T10:55:08.014Z,30.17
2018-05-31T10:56:08.014Z,30.18
2018-05-31T10:57:08.011Z,30.13
2018-05-31T10:58:08.005Z,30.08
2018-05-31T10:59:08.003Z,30.23
2018-05-31T11:00:08.000Z,30.21
2018-05-31T11:01:07.997Z,30.21
2018-05-31T11:02:07.992Z,30.32
2018-05-31T11:03:07.990Z,30.27
2018-05-31T11:04:07.985Z,30.35
2018-05-31T11:05:07.984Z,30.31
2018-05-31T11:06:07.980Z,30.29
2018-05-31T11:07:07.980Z,30.24
2018-05-31T11:08:07.974Z,30.31
2018-05-31T11:09:07.970Z,30.23
2018-05-31T11:10:07.965Z,30.21
2018-05-31T11:11:07.964Z,30.13
2018-05-31T11:12:07.960Z,30.23
2018-05-31T11:13:07.961Z,30.24
2018-05-31T11:14:07.954Z,30.23
2018-05-31T11:15:07.949Z,30.13
2018-05-31T11:16:07.947Z,30.08
2018-05-31T11:17:07.939Z,30.08
2018-05-31T11:18:07.937Z,30.13
2018-05-31T11:19:07.937Z,30.20
2018-05-31T11:20:07.932Z,30.18
2018-05-31T11:21:07.930Z,30.27
2018-05-31T11:22:07.926Z,30.29
2018-05-31T11:23:07.926Z,30.21
2018-05-31T11:24:07.921Z,30.31
2018-05-31T11:25:07.923Z,30.29
2018-05-31T11:26:07.913Z,30.27
2018-05-31T11:27:07.911Z,30.31
2018-05-31T11:28:07.909Z,30.33
2018-05-31T11:29:07.907Z,30.35
2018-05-31T11:30:07.900Z,30.39
2018-05-31T11:31:07.898Z,30.36
2018-05-31T11:32:07.894Z,30.38
2018-05-31T11:33:07.890Z,30.38
2018-05-31T11:34:07.886Z,30.31
2018-05-31T11:35:07.883Z,30.35
2018-05-31T11:36:07.880Z,30.43
2018-05-31T11:37:07.876Z,30.35
2018-05-31T11:38:07.872Z,30.29
2018-05-31T11:39:07.875Z,30.39
2018-05-31T11:40:07.866Z,30.32
2018-05-31T11:41:07.864Z,30.35
2018-05-31T11:42:07.862Z,30.35
2018-05-31T11:43:07.859Z,30.39
2018-05-31T11:44:07.855Z,30.36
2018-05-31T11:45:07.851Z,30.31
2018-05-31T11:46:07.849Z,30.40
2018-05-31T11:47:07.845Z,30.38
2018-05-31T11:48:07.841Z,30.36
2018-05-31T11:49:07.838Z,30.38
2018-05-31T11:50:07.837Z,30.38
2018-05-31T11:51:07.856Z,30.32
2018-05-31T11:52:07.826Z,30.31
2018-05-31T11:53:07.825Z,30.40
2018-05-31T11:54:07.821Z,30.38
2018-05-31T11:55:07.821Z,30.32
2018-05-31T11:56:07.817Z,30.35
2018-05-31T11:57:07.812Z,30.33
2018-05-31T11:58:07.809Z,30.38
2018-05-31T11:59:07.806Z,30.32
2018-05-31T12:00:07.802Z,30.38
2018-05-31T12:01:07.797Z,30.38
2018-05-31T12:02:07.794Z,30.35
2018-05-31T12:03:07.792Z,30.36
2018-05-31T12:04:07.789Z,30.39
2018-05-31T12:05:07.795Z,30.33
2018-05-31T12:06:07.782Z,30.35
2018-05-31T12:07:07.771Z,30.39
2018-05-31T12:08:07.801Z,30.32
2018-05-31T12:09:07.803Z,30.38
2018-05-31T12:10:07.773Z,30.39
2018-05-31T12:11:07.767Z,30.39
2018-05-31T12:12:07.767Z,30.32
2018-05-31T12:13:07.763Z,30.33
2018-05-31T12:14:07.753Z,30.35
2018-05-31T12:15:07.767Z,30.33
2018-05-31T12:16:07.749Z,30.43
2018-05-31T12:17:07.742Z,30.38
2018-05-31T12:18:07.741Z,30.38
2018-05-31T12:19:07.739Z,30.43
2018-05-31T12:20:07.741Z,30.39
2018-05-31T12:21:07.735Z,30.35
2018-05-31T12:22:07.729Z,30.35
2018-05-31T12:23:07.727Z,30.40
2018-05-31T12:24:07.723Z,30.40
2018-05-31T12:25:07.735Z,30.36
2018-05-31T12:26:07.715Z,30.43
2018-05-31T12:27:07.712Z,30.36
2018-05-31T12:28:07.709Z,30.39
2018-05-31T12:29:07.707Z,30.35
2018-05-31T12:30:07.703Z,30.36
2018-05-31T12:31:07.708Z,30.46
2018-05-31T12:32:07.715Z,30.49
2018-05-31T12:33:07.694Z,30.40
2018-05-31T12:34:07.712Z,30.36
2018-05-31T12:35:07.686Z,30.33
2018-05-31T12:36:07.684Z,30.35
2018-05-31T12:37:07.679Z,30.33
2018-05-31T12:38:07.676Z,30.33
2018-05-31T12:39:07.676Z,30.27
2018-05-31T12:40:07.671Z,30.29
2018-05-31T12:41:07.668Z,30.29
2018-05-31T12:42:07.664Z,30.29
2018-05-31T12:43:07.666Z,30.26
2018-05-31T12:44:07.656Z,30.24
2018-05-31T12:45:07.654Z,30.21
2018-05-31T12:46:07.651Z,30.26
2018-05-31T12:47:07.650Z,30.24
2018-05-31T12:48:07.643Z,30.11
2018-05-31T12:49:07.644Z,30.10
2018-05-31T12:50:07.637Z,30.11
2018-05-31T12:51:07.634Z,30.10
2018-05-31T12:52:07.631Z,30.14